Time;durP1;ratioP1;P1;durP2;ratioP2;P2;SDS_P1;SDS_P2;PMS_P1;PMS_P2;Temp;Humidity;BMP_temperature;BMP_pressure;BME280_temperature;BME280_humidity;BME280_pressure;Samples;Min_cycle;Max_cycle;Signal;HPM_P1;HPM_P2
2023/10/11 00:01:58;;;;;;;0.40;0.40;;;;;;;8.01;100.00;101617.78;4989640;28;20030;-76
2023/10/11 00:04:23;;;;;;;0.30;0.30;;;;;;;8.02;100.00;101598.63;4989288;28;20042;-76
2023/10/11 00:06:55;;;;;;;6.60;1.40;;;;;;;8.22;100.00;101607.94;4989523;28;20058;-76
2023/10/11 00:09:34;;;;;;;0.30;0.30;;;;;;;7.93;100.00;101595.72;4984183;28;20084;-76
2023/10/11 00:12:04;;;;;;;0.40;0.40;;;;;;;7.25;100.00;101504.88;4989687;28;20046;-76
2023/10/11 00:14:39;;;;;;;0.30;0.30;;;;;;;7.61;100.00;101593.03;5019688;28;20519;-75
2023/10/11 00:17:05;;;;;;;4.85;1.02;;;;;;;7.42;100.00;101522.78;4989273;28;20049;-75
2023/10/11 00:19:33;;;;;;;0.55;0.55;;;;;;;7.73;100.00;101624.75;4984915;28;20050;-76
2023/10/11 00:22:00;;;;;;;0.30;0.30;;;;;;;7.63;100.00;101624.41;4989103;28;20034;-76
2023/10/11 00:24:28;;;;;;;0.20;0.20;;;;;;;7.66;100.00;101627.16;4988228;28;20674;-76
2023/10/11 00:26:55;;;;;;;0.30;0.30;;;;;;;6.87;100.00;101512.34;4985932;28;20051;-76
2023/10/11 00:29:21;;;;;;;0.22;0.22;;;;;;;7.37;100.00;101620.16;4986380;28;20042;-76
2023/10/11 00:31:51;;;;;;;0.30;0.30;;;;;;;7.40;100.00;101629.81;4989194;28;20038;-76
2023/10/11 00:34:17;;;;;;;0.30;0.30;;;;;;;7.27;100.00;101619.78;4968339;28;20419;-77
2023/10/11 00:36:45;;;;;;;0.30;0.30;;;;;;;7.24;100.00;101625.78;4963414;28;20070;-75
2023/10/11 00:39:17;;;;;;;0.30;0.30;;;;;;;7.13;100.00;101606.28;4967054;28;20823;-76
2023/10/11 00:41:47;;;;;;;0.50;0.50;;;;;;;6.63;100.00;101509.84;4970124;28;20416;-76
2023/10/11 00:44:17;;;;;;;0.38;0.38;;;;;;;7.30;100.00;101627.72;4986835;28;20041;-75
2023/10/11 00:47:00;;;;;;;5.50;5.30;;;;;;;6.73;100.00;101531.88;4988276;28;20055;-76
2023/10/11 00:49:39;;;;;;;;;;;;;;;7.26;100.00;101624.13;4962589;28;20052;-76
2023/10/11 00:52:06;;;;;;;0.30;0.30;;;;;;;6.80;100.00;101554.72;4977405;28;19922;-76
2023/10/11 00:54:37;;;;;;;0.50;0.50;;;;;;;7.21;100.00;101625.72;4988751;28;20784;-76
2023/10/11 00:57:04;;;;;;;0.63;0.63;;;;;;;7.22;100.00;101631.81;4988372;28;20477;-76
2023/10/11 00:59:30;;;;;;;1.30;1.30;;;;;;;6.60;100.00;101525.34;4988470;28;20035;-76
2023/10/11 01:01:58;;;;;;;0.40;0.40;;;;;;;7.19;100.00;101633.47;4988985;28;20034;-76
2023/10/11 01:04:27;;;;;;;0.30;0.30;;;;;;;6.73;100.00;101565.78;4985279;28;20047;-75
2023/10/11 01:06:53;;;;;;;0.25;0.25;;;;;;;7.00;100.00;101631.09;4986167;28;20042;-75
2023/10/11 01:09:25;;;;;;;0.30;0.30;;;;;;;6.73;100.00;101582.31;4985055;28;20054;-76
2023/10/11 01:11:50;;;;;;;2.33;1.95;;;;;;;6.96;100.00;101566.56;4988427;28;20050;-76
2023/10/11 01:14:16;;;;;;;0.30;0.30;;;;;;;7.18;100.00;101630.81;4988857;28;20041;-75
2023/10/11 01:16:41;;;;;;;0.30;0.30;;;;;;;7.24;100.00;101617.97;4987821;28;20039;-75
2023/10/11 01:19:11;;;;;;;0.55;0.55;;;;;;;7.07;100.00;101617.41;4987000;28;20045;-75
2023/10/11 01:21:37;;;;;;;0.30;0.30;;;;;;;6.91;100.00;101595.13;4988526;28;20047;-75
2023/10/11 01:24:03;;;;;;;0.32;0.32;;;;;;;7.18;100.00;101612.53;4987407;28;20466;-75
2023/10/11 01:26:30;;;;;;;26.40;23.67;;;;;;;7.30;100.00;101643.38;4986897;28;20038;-75
2023/10/11 01:28:56;;;;;;;0.60;0.60;;;;;;;7.37;100.00;101635.81;4987965;28;20041;-75
2023/10/11 01:31:23;;;;;;;0.40;0.40;;;;;;;7.37;100.00;101647.97;5018646;28;20593;-74
2023/10/11 01:33:49;;;;;;;0.70;0.70;;;;;;;6.76;100.00;101531.97;4986568;28;20065;-74
2023/10/11 01:36:15;;;;;;;0.85;0.82;;;;;;;7.27;100.00;101619.78;4987633;28;20106;-74
2023/10/11 01:38:48;;;;;;;0.50;0.50;;;;;;;7.30;100.00;101633.81;4985483;28;20046;-75
2023/10/11 01:41:16;;;;;;;1.02;1.02;;;;;;;7.30;100.00;101636.41;4988744;28;20118;-75
2023/10/11 01:43:45;;;;;;;0.40;0.40;;;;;;;7.39;100.00;101643.69;4986847;28;20054;-75
2023/10/11 01:46:16;;;;;;;0.40;0.40;;;;;;;7.28;100.00;101645.03;4985845;28;20052;-75
2023/10/11 01:48:43;;;;;;;0.40;0.40;;;;;;;7.75;100.00;101646.59;4981702;28;20150;-75
2023/10/11 01:51:09;;;;;;;0.30;0.30;;;;;;;6.91;100.00;101529.00;4987177;28;20583;-75
2023/10/11 01:53:38;;;;;;;0.40;0.40;;;;;;;7.48;100.00;101628.31;4986714;28;20038;-75
2023/10/11 01:56:04;;;;;;;0.30;0.30;;;;;;;6.84;100.00;101522.72;4986894;28;20036;-75
2023/10/11 01:58:31;;;;;;;0.30;0.30;;;;;;;6.90;100.00;101530.72;5018019;28;20050;-76
2023/10/11 02:00:56;;;;;;;0.20;0.20;;;;;;;6.90;100.00;101561.16;4986542;28;20116;-75
2023/10/11 02:03:24;;;;;;;0.70;0.70;;;;;;;7.02;100.00;101560.66;4986095;28;20061;-75
2023/10/11 02:05:50;;;;;;;0.40;0.20;;;;;;;7.72;100.00;101606.41;4981008;28;20770;-76
2023/10/11 02:08:17;;;;;;;19.98;18.23;;;;;;;8.02;100.00;101635.22;4980320;28;20391;-76
2023/10/11 02:10:45;;;;;;;0.20;0.20;;;;;;;7.95;100.00;101638.47;4985017;28;20108;-76
2023/10/11 02:13:11;;;;;;;0.20;0.20;;;;;;;7.98;100.00;101641.19;4984288;28;20042;-76
2023/10/11 02:15:39;;;;;;;0.30;0.30;;;;;;;8.07;100.00;101630.13;4986679;28;20245;-75
2023/10/11 02:18:08;;;;;;;0.20;0.20;;;;;;;8.03;100.00;101605.63;4985405;28;20507;-76
2023/10/11 02:20:46;;;;;;;0.93;0.93;;;;;;;8.00;100.00;101589.84;4986566;28;20811;-76
2023/10/11 02:23:11;;;;;;;1.15;1.00;;;;;;;7.66;100.00;101514.81;4987086;28;20513;-76
2023/10/11 02:25:38;;;;;;;0.30;0.30;;;;;;;8.23;100.00;101624.50;4985971;28;20050;-75
2023/10/11 02:28:09;;;;;;;1.48;1.38;;;;;;;7.47;100.00;101490.75;4982629;28;20756;-75
2023/10/11 02:30:38;;;;;;;0.20;0.20;;;;;;;8.18;100.00;101608.69;4982524;28;20072;-76
2023/10/11 02:33:07;;;;;;;0.30;0.30;;;;;;;8.31;100.00;101637.78;4985099;28;20046;-76
2023/10/11 02:35:53;;;;;;;0.63;0.63;;;;;;;7.75;100.00;101530.72;4987117;28;20088;-76
2023/10/11 02:38:22;;;;;;;0.40;0.40;;;;;;;7.89;100.00;101550.34;4984827;28;20022;-75
2023/10/11 02:40:55;;;;;;;0.30;0.30;;;;;;;8.19;100.00;101600.00;4987058;28;20113;-75
2023/10/11 02:43:25;;;;;;;0.73;0.73;;;;;;;8.04;100.00;101557.72;4986621;28;20120;-76
2023/10/11 02:45:52;;;;;;;0.63;0.63;;;;;;;7.45;100.00;101620.38;4986653;28;20038;-77
2023/10/11 02:48:20;;;;;;;2.63;1.85;;;;;;;6.81;100.00;101512.16;4985357;28;20045;-75
2023/10/11 02:50:49;;;;;;;0.20;0.20;;;;;;;6.86;100.00;101557.56;4982244;28;20844;-76
2023/10/11 02:53:22;;;;;;;0.30;0.30;;;;;;;7.19;100.00;101516.00;4982412;28;20100;-76
2023/10/11 02:55:57;;;;;;;0.30;0.30;;;;;;;7.19;100.00;101603.88;4984259;28;20081;-76
2023/10/11 02:58:29;;;;;;;0.35;0.35;;;;;;;7.23;100.00;101618.78;4978009;28;20050;-75
2023/10/11 03:01:05;;;;;;;0.40;0.40;;;;;;;7.51;100.00;101625.78;4979628;28;20046;-75
2023/10/11 03:03:31;;;;;;;0.20;0.20;;;;;;;6.65;100.00;101505.56;4978419;28;20049;-75
2023/10/11 03:05:56;;;;;;;0.40;0.40;;;;;;;6.60;100.00;101506.22;4981766;28;20050;-75
2023/10/11 03:08:26;;;;;;;0.95;0.77;;;;;;;6.52;100.00;101505.97;4983548;28;20041;-76
2023/10/11 03:10:58;;;;;;;0.22;0.22;;;;;;;6.96;100.00;101609.22;4977802;28;20038;-75
2023/10/11 03:13:29;;;;;;;0.20;0.20;;;;;;;6.57;100.00;101529.59;4981614;28;20057;-75
2023/10/11 03:15:59;;;;;;;3.15;2.25;;;;;;;6.97;100.00;101603.13;4983662;28;20444;-75
2023/10/11 03:18:32;;;;;;;0.30;0.30;;;;;;;7.16;100.00;101596.84;4984404;28;20054;-75
2023/10/11 03:21:08;;;;;;;0.20;0.20;;;;;;;6.92;100.00;101486.41;5017481;28;20046;-75
2023/10/11 03:23:44;;;;;;;0.30;0.30;;;;;;;6.87;100.00;101494.09;4982554;28;20046;-76
2023/10/11 03:26:22;;;;;;;0.40;0.40;;;;;;;6.88;100.00;101500.19;4985845;28;20034;-78
2023/10/11 03:28:57;;;;;;;0.40;0.40;;;;;;;6.52;100.00;101530.31;4984137;28;20656;-75
2023/10/11 03:31:27;;;;;;;0.38;0.38;;;;;;;7.00;100.00;101596.25;4984129;28;20082;-76
2023/10/11 03:33:56;;;;;;;0.50;0.50;;;;;;;7.01;100.00;101631.97;4976001;28;20057;-75
2023/10/11 03:36:29;;;;;;;1.00;1.00;;;;;;;5.83;100.00;101431.47;4977588;28;20038;-76
2023/10/11 03:38:54;;;;;;;0.70;0.68;;;;;;;7.38;100.00;101634.97;4984568;28;20224;-76
2023/10/11 03:42:06;;;;;;;1.25;1.20;;;;;;;6.50;100.00;101499.81;4980727;28;20038;-75
2023/10/11 03:44:10;;;;;;;0.50;0.50;;;;;;;7.22;100.00;101613.53;4981864;28;20092;-77
2023/10/11 03:46:36;;;;;;;0.28;0.28;;;;;;;7.41;100.00;101623.72;4973473;28;20741;-76
2023/10/11 03:49:36;;;;;;;0.30;0.30;;;;;;;6.51;100.00;101515.53;5016923;28;20080;-75
2023/10/11 03:52:00;;;;;;;0.82;0.82;;;;;;;6.80;100.00;101606.91;4979787;28;20109;-75
2023/10/11 03:54:25;;;;;;;1.50;1.48;;;;;;;6.64;100.00;101625.47;4983525;28;20356;-75
2023/10/11 03:56:53;;;;;;;1.23;1.10;;;;;;;6.37;100.00;101651.41;4983780;28;20592;-76
2023/10/11 03:59:20;;;;;;;0.38;0.38;;;;;;;5.63;100.00;101539.19;4983713;28;20034;-75
2023/10/11 04:01:46;;;;;;;0.30;0.30;;;;;;;5.53;100.00;101529.28;4984632;28;20041;-76
2023/10/11 04:04:11;;;;;;;0.40;0.40;;;;;;;5.80;100.00;101534.63;4981112;28;20050;-75
2023/10/11 04:06:37;;;;;;;0.28;0.28;;;;;;;5.99;100.00;101625.69;4984894;28;20054;-75
2023/10/11 04:09:03;;;;;;;0.20;0.20;;;;;;;5.39;100.00;101533.94;4980797;28;20128;-75
2023/10/11 04:14:24;;;;;;;0.38;0.38;;;;;;;5.80;100.00;101600.63;4982364;28;20137;-76
2023/10/11 04:16:52;;;;;;;0.95;0.95;;;;;;;6.03;100.00;101644.94;4984777;28;20073;-76
2023/10/11 04:19:21;;;;;;;4.07;3.88;;;;;;;5.51;100.00;101568.25;4984092;28;20137;-78
2023/10/11 04:24:19;;;;;;;0.40;0.40;;;;;;;5.92;100.00;101658.41;4982746;28;20108;-75
2023/10/11 04:26:54;;;;;;;5.00;4.70;;;;;;;5.46;100.00;101541.16;4984511;28;20469;-75
2023/10/11 04:29:23;;;;;;;0.20;0.20;;;;;;;5.34;100.00;101554.59;4973845;28;20898;-76
2023/10/11 04:34:23;;;;;;;1.52;1.45;;;;;;;5.09;100.00;101570.91;4980109;28;20050;-76
2023/10/11 04:36:55;;;;;;;0.20;0.20;;;;;;;5.87;100.00;101708.53;4985761;28;20070;-75
2023/10/11 04:39:27;;;;;;;0.65;0.65;;;;;;;5.28;100.00;101594.25;4989137;28;20053;-76
2023/10/11 04:41:57;;;;;;;0.35;0.35;;;;;;;5.59;100.00;101689.19;4990816;28;20133;-75
2023/10/11 04:44:42;;;;;;;0.55;0.55;;;;;;;5.18;100.00;101625.03;4986228;28;20034;-74
2023/10/11 04:47:09;;;;;;;0.80;0.80;;;;;;;6.10;100.00;101719.91;5001234;28;20149;-76
2023/10/11 04:49:35;;;;;;;0.30;0.30;;;;;;;5.47;100.00;101696.50;4985062;28;20064;-76
2023/10/11 04:52:00;;;;;;;0.30;0.30;;;;;;;5.78;100.00;101708.16;4983882;28;20042;-76
2023/10/11 04:54:42;;;;;;;0.75;0.75;;;;;;;5.80;100.00;101735.16;4976693;28;20511;-75
2023/10/11 04:57:20;;;;;;;0.20;0.20;;;;;;;5.19;100.00;101619.88;4984387;28;20051;-76
2023/10/11 04:59:49;;;;;;;0.40;0.40;;;;;;;5.75;100.00;101752.31;4985272;28;20054;-77
2023/10/11 05:04:51;;;;;;;0.32;0.32;;;;;;;4.47;100.00;101559.63;4984543;28;20058;-75
2023/10/11 05:07:19;;;;;;;0.30;0.30;;;;;;;5.60;100.00;101744.78;4979811;28;20042;-76
2023/10/11 05:09:59;;;;;;;0.40;0.40;;;;;;;5.78;100.00;101787.19;4978386;28;20899;-76
2023/10/11 05:12:24;;;;;;;0.52;0.52;;;;;;;5.78;100.00;101783.69;4978670;28;20058;-75
2023/10/11 05:19:46;;;;;;;0.73;0.55;;;;;;;5.87;100.00;101778.88;4990665;28;20105;-77
2023/10/11 05:30:28;;;;;;;0.45;0.45;;;;;;;6.05;100.00;101761.41;4986627;28;20151;-74
2023/10/11 05:52:08;;;;;;;0.35;0.35;;;;;;;6.36;100.00;101715.69;4986310;28;20454;-74
2023/10/11 05:54:35;;;;;;;0.85;0.85;;;;;;;6.44;100.00;101706.47;4986385;28;20483;-76
2023/10/11 05:57:04;;;;;;;1.85;1.83;;;;;;;7.21;100.00;101807.53;4986938;28;20064;-76
2023/10/11 05:59:35;;;;;;;0.28;0.28;;;;;;;6.82;100.00;101699.16;4981932;28;20034;-77
2023/10/11 06:02:02;;;;;;;1.10;0.85;;;;;;;7.68;100.00;101814.44;4982743;28;20034;-75
2023/10/11 06:04:30;;;;;;;1.17;1.17;;;;;;;7.16;100.00;101711.69;4986806;28;20046;-77
2023/10/11 06:06:58;;;;;;;1.40;1.30;;;;;;;7.25;100.00;101734.59;4987140;28;20050;-77
2023/10/11 06:09:30;;;;;;;0.50;0.50;;;;;;;7.95;100.00;101831.88;4985262;28;20066;-76
2023/10/11 06:11:57;;;;;;;0.30;0.30;;;;;;;7.48;100.00;101722.31;4986937;28;20046;-75
2023/10/11 06:14:23;;;;;;;0.30;0.30;;;;;;;8.04;100.00;101824.34;4987031;28;20046;-75
2023/10/11 06:16:56;;;;;;;0.30;0.30;;;;;;;7.83;100.00;101777.47;4987204;28;20104;-75
2023/10/11 06:19:28;;;;;;;0.28;0.28;;;;;;;7.68;100.00;101748.22;4985034;28;20042;-76
2023/10/11 06:22:09;;;;;;;1.17;1.15;;;;;;;7.72;100.00;101740.53;4983744;28;20050;-77
2023/10/11 06:24:39;;;;;;;0.20;0.20;;;;;;;8.35;100.00;101804.41;4986315;28;21158;-77
2023/10/11 06:29:53;;;;;;;0.70;0.70;;;;;;;8.29;100.00;101755.44;4981404;28;20046;-77
2023/10/11 06:32:23;;;;;;;0.30;0.30;;;;;;;7.98;100.00;101685.59;4981460;28;20081;-76
2023/10/11 06:34:50;;;;;;;0.55;0.40;;;;;;;8.58;100.00;101745.88;4979938;28;20031;-75
2023/10/11 06:37:18;;;;;;;0.73;0.73;;;;;;;8.65;100.00;101726.91;4985904;28;20129;-76
2023/10/11 06:42:21;;;;;;;0.38;0.38;;;;;;;9.21;100.00;101823.59;4980765;28;20046;-75
2023/10/11 06:44:57;;;;;;;0.40;0.40;;;;;;;9.50;100.00;101847.09;4982769;28;20073;-75
2023/10/11 06:47:23;;;;;;;0.20;0.20;;;;;;;9.24;100.00;101822.81;4985405;28;20494;-75
2023/10/11 06:49:56;;;;;;;0.30;0.30;;;;;;;8.93;100.00;101721.56;4985163;28;20038;-76
2023/10/11 06:52:33;;;;;;;0.50;0.50;;;;;;;9.83;100.00;101847.16;4986364;28;20042;-75
2023/10/11 06:55:16;;;;;;;0.30;0.30;;;;;;;9.04;100.00;101730.63;4983149;28;20383;-76
2023/10/11 06:57:54;;;;;;;0.20;0.20;;;;;;;9.50;100.00;101737.97;4980197;28;20047;-76
2023/10/11 07:00:37;;;;;;;0.20;0.20;;;;;;;10.15;100.00;101800.72;4985813;28;20136;-76
2023/10/11 07:05:46;;;;;;;0.65;0.65;;;;;;;10.70;97.77;101834.38;4981464;28;20165;-75
2023/10/11 07:08:17;;;;;;;0.30;0.30;;;;;;;10.99;95.74;101822.78;4986188;28;20371;-76
2023/10/11 07:11:00;;;;;;;0.20;0.20;;;;;;;10.42;92.99;101726.19;4982446;28;20061;-76
2023/10/11 07:13:49;;;;;;;0.50;0.50;;;;;;;11.04;90.39;101843.88;4984808;28;20129;-76
2023/10/11 07:16:21;;;;;;;2.30;1.55;;;;;;;11.26;88.84;101850.50;4986090;28;20069;-76
2023/10/11 07:18:48;;;;;;;0.30;0.30;;;;;;;10.71;88.33;101736.41;4984877;28;20038;-78
2023/10/11 07:21:15;;;;;;;3.72;1.45;;;;;;;11.60;88.69;101859.03;4983640;28;20073;-76
2023/10/11 07:26:23;;;;;;;1.38;1.27;;;;;;;11.08;83.26;101794.94;4983347;28;20046;-75
2023/10/11 07:28:52;;;;;;;0.30;0.30;;;;;;;10.71;85.77;101766.16;4985576;28;20188;-76
2023/10/11 07:31:33;;;;;;;6.05;2.42;;;;;;;10.51;86.31;101786.75;4984372;28;20140;-76
2023/10/11 07:34:06;;;;;;;1.05;0.80;;;;;;;11.49;84.76;101850.03;4975403;28;20053;-75
2023/10/11 07:36:37;;;;;;;1.88;1.77;;;;;;;11.74;82.18;101827.72;4974724;28;20050;-75
2023/10/11 07:39:14;;;;;;;8.15;4.00;;;;;;;11.22;81.49;101787.34;5012205;28;20137;-75
2023/10/11 07:41:42;;;;;;;1.08;0.85;;;;;;;11.08;81.19;101738.03;4978859;28;20494;-76
2023/10/11 07:44:09;;;;;;;1.05;0.95;;;;;;;11.09;81.37;101750.28;4977221;28;20096;-75
2023/10/11 07:46:37;;;;;;;5.50;1.85;;;;;;;11.61;81.48;101837.13;4980309;28;20046;-77
2023/10/11 07:49:04;;;;;;;1.83;0.98;;;;;;;12.15;78.75;101835.47;4985055;28;20050;-75
2023/10/11 07:51:35;;;;;;;2.53;2.13;;;;;;;12.10;76.25;101780.16;4994141;28;20065;-76
2023/10/11 07:54:07;;;;;;;0.30;0.30;;;;;;;11.85;74.12;101742.03;4993836;28;20054;-74
2023/10/11 07:56:35;;;;;;;1.23;0.85;;;;;;;12.04;74.20;101746.75;4981095;28;20055;-78
2023/10/11 07:59:12;;;;;;;1.05;0.77;;;;;;;11.99;73.33;101751.06;4982665;28;20026;-79
2023/10/11 08:01:44;;;;;;;1.08;0.98;;;;;;;13.61;77.72;101813.75;4977987;28;20061;-79
2023/10/11 08:04:17;;;;;;;1.38;1.20;;;;;;;13.10;70.01;101732.31;5013675;28;20043;-77
2023/10/11 08:06:46;;;;;;;4.68;2.08;;;;;;;12.71;67.72;101708.16;4982806;28;20493;-80
2023/10/11 08:09:21;;;;;;;1.05;0.95;;;;;;;12.56;66.76;101733.44;4982162;28;20531;-78
2023/10/11 08:11:54;;;;;;;4.03;1.92;;;;;;;12.94;67.51;101809.44;4980554;28;20038;-78
2023/10/11 08:14:22;;;;;;;8.93;2.10;;;;;;;12.99;66.70;101776.09;4984739;28;20085;-77
2023/10/11 08:16:52;;;;;;;1.98;1.77;;;;;;;13.48;67.20;101823.28;4985501;28;20038;-76
2023/10/11 08:19:18;;;;;;;2.40;1.17;;;;;;;13.66;66.05;101815.56;4987451;28;20116;-77
2023/10/11 08:21:47;;;;;;;0.88;0.88;;;;;;;12.52;64.56;101726.34;4987023;28;20046;-76
2023/10/11 08:24:15;;;;;;;1.17;1.08;;;;;;;13.22;64.93;101812.41;4986571;28;20141;-77
2023/10/11 08:26:45;;;;;;;1.15;1.05;;;;;;;13.48;67.59;101741.53;4988017;28;20050;-78
2023/10/11 08:29:29;;;;;;;1.95;1.52;;;;;;;14.22;69.47;101743.00;4989639;28;20038;-76
2023/10/11 08:31:59;;;;;;;2.25;2.03;;;;;;;14.27;60.31;101822.25;4966429;28;20050;-77
2023/10/11 08:34:28;;;;;;;0.30;0.30;;;;;;;13.47;60.33;101824.16;4986479;28;20042;-77
2023/10/11 08:36:57;;;;;;;1.75;1.38;;;;;;;13.60;59.98;101762.75;4981681;28;20494;-77
2023/10/11 08:42:22;;;;;;;1.98;1.85;;;;;;;14.41;63.51;101720.22;4983867;28;20141;-77
2023/10/11 08:44:49;;;;;;;2.90;1.02;;;;;;;14.70;60.17;101785.56;4989382;28;20463;-77
2023/10/11 08:47:19;;;;;;;0.75;0.52;;;;;;;13.86;58.06;101834.22;4988271;28;20034;-77
2023/10/11 08:49:51;;;;;;;0.43;0.43;;;;;;;13.73;58.41;101792.75;4986592;28;20050;-75
2023/10/11 08:52:24;;;;;;;0.35;0.35;;;;;;;14.64;58.69;101831.31;4988450;28;20125;-78
2023/10/11 08:54:51;;;;;;;1.05;0.65;;;;;;;14.97;58.58;101829.75;4982831;28;20096;-77
2023/10/11 08:57:26;;;;;;;1.30;1.13;;;;;;;13.87;57.96;101783.22;4985383;28;20354;-76
2023/10/11 09:00:17;;;;;;;0.85;0.85;;;;;;;14.06;57.51;101731.44;4985065;28;20046;-77
2023/10/11 09:02:48;;;;;;;1.63;1.10;;;;;;;15.39;61.12;101733.78;4981028;28;20085;-78
2023/10/11 09:05:29;;;;;;;1.23;0.90;;;;;;;15.20;55.30;101784.88;4988140;28;20046;-75
2023/10/11 09:07:55;;;;;;;1.15;0.52;;;;;;;14.86;56.19;101787.38;4984749;28;20058;-76
2023/10/11 09:10:28;;;;;;;6.07;1.23;;;;;;;14.13;56.66;101717.41;4984906;28;20097;-77
2023/10/11 09:12:57;;;;;;;0.65;0.65;;;;;;;14.52;56.46;101752.00;4986992;28;20582;-77
2023/10/11 09:15:45;;;;;;;1.60;1.50;;;;;;;15.48;56.34;101756.75;4985263;28;20050;-77
2023/10/11 09:18:12;;;;;;;1.00;0.85;;;;;;;16.32;57.08;101822.09;4985061;28;20058;-77
2023/10/11 09:21:10;;;;;;;1.58;1.48;;;;;;;15.15;56.56;101828.94;4983665;28;20121;-78
2023/10/11 09:23:37;;;;;;;0.40;0.40;;;;;;;14.32;57.12;101713.13;4984053;28;20450;-77
2023/10/11 09:26:10;;;;;;;1.02;0.93;;;;;;;14.57;58.25;101708.88;4985901;28;20049;-77
2023/10/11 09:28:40;;;;;;;1.23;1.13;;;;;;;14.98;56.46;101818.28;4986821;28;20110;-79
2023/10/11 09:31:11;;;;;;;1.85;1.73;;;;;;;15.21;57.28;101826.31;4985446;28;20069;-78
2023/10/11 09:33:40;;;;;;;0.75;0.75;;;;;;;15.16;55.92;101812.19;4979726;28;20833;-79
2023/10/11 09:36:08;;;;;;;1.90;0.55;;;;;;;15.73;58.09;101807.06;4985205;28;20819;-78
2023/10/11 09:38:39;;;;;;;0.65;0.65;;;;;;;14.73;56.47;101780.31;4985445;28;20161;-78
2023/10/11 09:41:08;;;;;;;0.98;0.57;;;;;;;15.66;55.76;101699.41;4987384;28;20302;-79
2023/10/11 09:43:43;;;;;;;0.75;0.68;;;;;;;15.97;55.38;101783.28;4982438;28;20648;-78
2023/10/11 09:46:11;;;;;;;1.65;1.27;;;;;;;16.52;56.58;101787.59;4979643;28;20042;-76
2023/10/11 09:48:48;;;;;;;2.08;1.90;;;;;;;16.08;54.97;101790.31;4982469;28;20043;-78
2023/10/11 09:51:16;;;;;;;4.93;1.65;;;;;;;15.03;55.01;101691.41;4980323;28;20069;-76
2023/10/11 09:53:49;;;;;;;1.23;1.08;;;;;;;16.06;55.36;101797.38;4981839;28;20051;-77
2023/10/11 09:56:50;;;;;;;0.68;0.65;;;;;;;15.85;54.62;101798.25;5014672;28;20388;-77
2023/10/11 09:59:34;;;;;;;0.30;0.30;;;;;;;15.91;55.86;101793.84;4977031;28;20069;-78
2023/10/11 10:02:19;;;;;;;1.38;0.75;;;;;;;16.08;54.44;101792.97;4980637;28;20031;-78
2023/10/11 10:04:51;;;;;;;0.50;0.50;;;;;;;15.86;54.79;101778.84;4966745;28;20066;-77
2023/10/11 10:07:25;;;;;;;1.10;0.98;;;;;;;17.14;55.58;101775.03;4978945;28;20050;-77
2023/10/11 10:10:00;;;;;;;1.23;0.93;;;;;;;15.83;55.02;101661.50;4977311;28;20170;-77
2023/10/11 10:12:34;;;;;;;1.08;0.95;;;;;;;15.95;52.66;101671.19;4981443;28;20399;-76
2023/10/11 10:15:12;;;;;;;0.95;0.80;;;;;;;15.99;53.79;101775.31;4984677;28;20053;-77
2023/10/11 10:17:39;;;;;;;0.47;0.38;;;;;;;16.15;53.10;101731.16;4983216;28;20174;-77
2023/10/11 10:20:41;;;;;;;2.95;1.92;;;;;;;16.08;52.95;101761.19;4982607;28;20042;-76
2023/10/11 10:23:15;;;;;;;1.85;1.75;;;;;;;16.01;53.64;101769.16;4997279;28;20082;-81
2023/10/11 10:25:48;;;;;;;1.63;1.52;;;;;;;16.55;53.56;101741.66;4983500;28;20410;-76
2023/10/11 10:28:34;;;;;;;1.48;1.20;;;;;;;17.02;53.91;101751.19;4980743;28;20079;-77
2023/10/11 10:31:17;;;;;;;0.82;0.65;;;;;;;16.28;53.17;101753.22;4976628;28;20112;-76
2023/10/11 10:34:08;;;;;;;0.45;0.40;;;;;;;16.17;53.98;101746.16;4980202;28;20051;-75
2023/10/11 10:36:37;;;;;;;1.00;0.82;;;;;;;16.01;53.25;101641.16;4965213;28;20038;-75
2023/10/11 10:41:36;;;;;;;0.38;0.38;;;;;;;16.83;52.04;101628.47;4978229;28;20049;-76
2023/10/11 10:44:04;;;;;;;1.35;1.25;;;;;;;17.97;51.82;101731.09;4980471;28;20041;-77
2023/10/11 10:46:34;;;;;;;0.28;0.28;;;;;;;17.73;51.79;101714.47;4981092;28;21940;-76
2023/10/11 10:49:01;;;;;;;1.25;1.15;;;;;;;17.28;51.50;101743.13;4981562;28;20442;-78
2023/10/11 10:51:37;;;;;;;1.45;0.93;;;;;;;17.73;51.23;101711.81;4977031;28;20038;-78
2023/10/11 10:54:13;;;;;;;0.88;0.57;;;;;;;17.15;51.56;101705.16;4984048;28;20046;-78
2023/10/11 10:56:45;;;;;;;1.27;1.10;;;;;;;17.09;51.44;101705.19;4980620;28;20065;-79
2023/10/11 10:59:20;;;;;;;1.38;1.08;;;;;;;17.54;51.10;101694.28;4983041;28;20490;-79
2023/10/11 11:01:48;;;;;;;0.45;0.45;;;;;;;17.47;50.92;101666.91;4984554;28;20137;-77
2023/10/11 11:04:18;;;;;;;0.32;0.20;;;;;;;17.46;51.40;101707.59;4980261;28;20081;-76
2023/10/11 11:06:48;;;;;;;4.80;1.38;;;;;;;17.61;51.47;101665.03;4966197;28;20093;-75
2023/10/11 11:09:19;;;;;;;0.57;0.40;;;;;;;17.69;51.26;101700.31;4965729;28;20731;-77
2023/10/11 11:11:46;;;;;;;1.10;1.00;;;;;;;17.21;50.81;101604.34;4984591;28;20050;-75
2023/10/11 11:14:13;;;;;;;0.20;0.20;;;;;;;17.93;50.67;101704.59;4984896;28;20035;-77
2023/10/11 11:16:41;;;;;;;26.20;1.42;;;;;;;17.40;50.75;101617.44;4980561;28;20042;-76
2023/10/11 11:19:16;;;;;;;0.55;0.47;;;;;;;17.82;51.04;101690.53;4981919;28;20080;-77
2023/10/11 11:21:46;;;;;;;0.85;0.75;;;;;;;18.06;50.16;101685.88;4967710;28;20042;-74
2023/10/11 11:24:19;;;;;;;0.90;0.55;;;;;;;17.86;50.21;101670.13;4965553;28;20055;-76
2023/10/11 11:26:46;;;;;;;3.40;1.17;;;;;;;18.10;50.54;101701.75;4969047;28;20141;-77
2023/10/11 11:29:31;;;;;;;7.68;2.58;;;;;;;17.55;50.50;101640.31;4977734;28;20042;-75
2023/10/11 11:31:59;;;;;;;1.10;0.85;;;;;;;17.59;50.50;101623.47;4982760;28;20046;-77
2023/10/11 11:34:33;;;;;;;1.48;0.98;;;;;;;17.93;50.88;101645.25;4984706;28;20510;-77
2023/10/11 11:37:04;;;;;;;0.47;0.43;;;;;;;17.84;50.07;101619.69;4983691;28;20507;-77
2023/10/11 11:39:39;;;;;;;1.15;1.05;;;;;;;18.00;50.07;101592.94;4984040;28;20049;-77
2023/10/11 11:42:48;;;;;;;1.38;1.25;;;;;;;18.13;49.81;101614.03;4984225;28;20718;-77
2023/10/11 11:44:55;;;;;;;0.90;0.73;;;;;;;18.12;50.31;101677.81;4981676;28;20053;-76
2023/10/11 11:47:23;;;;;;;2.05;1.33;;;;;;;18.11;50.05;101676.06;4982794;28;20042;-77
2023/10/11 11:49:48;;;;;;;1.23;0.73;;;;;;;17.63;50.74;101646.41;4980559;28;20038;-77
2023/10/11 11:52:17;;;;;;;2.05;1.95;;;;;;;17.97;50.77;101662.06;4984337;28;20414;-79
2023/10/11 11:54:43;;;;;;;1.35;1.15;;;;;;;17.97;50.25;101681.50;4981089;28;20141;-78
2023/10/11 11:57:09;;;;;;;1.48;1.00;;;;;;;17.66;50.58;101578.25;4987190;28;20522;-79
2023/10/11 11:59:36;;;;;;;3.92;2.20;;;;;;;17.98;50.24;101584.13;4986177;28;20057;-78
2023/10/11 12:02:02;;;;;;;0.45;0.38;;;;;;;18.13;50.07;101672.47;4986735;28;20046;-78
2023/10/11 12:04:32;;;;;;;1.17;0.35;;;;;;;17.91;50.77;101637.31;4985246;28;20057;-78
2023/10/11 12:07:04;;;;;;;4.00;1.42;;;;;;;17.88;50.38;101570.06;4980529;28;20039;-78
2023/10/11 12:09:34;;;;;;;2.90;1.90;;;;;;;18.40;50.23;101664.22;4985329;28;20046;-78
2023/10/11 12:12:05;;;;;;;1.45;1.35;;;;;;;17.65;50.27;101578.25;4982877;28;20153;-79
2023/10/11 12:14:37;;;;;;;1.65;1.17;;;;;;;17.26;50.84;101570.69;4987871;28;20066;-78
2023/10/11 12:17:09;;;;;;;2.33;1.30;;;;;;;17.88;50.63;101624.06;4986985;28;20466;-78
2023/10/11 12:19:41;;;;;;;4.60;2.60;;;;;;;18.42;49.83;101659.75;4986918;28;20070;-77
2023/10/11 12:22:13;;;;;;;1.33;0.82;;;;;;;17.89;50.39;101572.72;4987813;28;20054;-79
2023/10/11 12:24:44;;;;;;;2.00;1.30;;;;;;;17.86;50.43;101535.59;4983174;28;20042;-78
2023/10/11 12:27:11;;;;;;;2.38;0.98;;;;;;;18.06;50.05;101607.03;4984034;28;20046;-78
2023/10/11 12:29:37;;;;;;;1.20;1.05;;;;;;;18.44;50.11;101616.31;4980399;28;20398;-79
2023/10/11 12:32:06;;;;;;;1.77;1.45;;;;;;;18.47;50.05;101648.19;4988291;28;20100;-78
2023/10/11 12:34:32;;;;;;;1.63;1.38;;;;;;;18.50;49.72;101642.81;4985989;28;20054;-79
2023/10/11 12:37:00;;;;;;;1.83;1.70;;;;;;;17.75;50.04;101517.97;4986643;28;20105;-79
2023/10/11 12:39:29;;;;;;;2.85;2.15;;;;;;;18.21;50.83;101621.03;4986325;28;20467;-78
2023/10/11 12:41:56;;;;;;;1.15;0.60;;;;;;;18.44;50.30;101634.91;4987551;28;20058;-77